Automated Weather Station

Lita, Tayabas, Quezon


Readings

as of August 06, 2016 01:00 AM
Wind Speed
1.4 mm
Rainfall Amount
0 mm
Rainfall Intensity
0 mm
Air Temperature
mm
Wind Direction
293 mm
Air Humidity
88.4 mm

Data Source: PREDICT (Advanced Science and Technology Institute)

12 HOUR DATA

PREVIOUS DATA

From
To
DateTime Wind Speed Rain Amount Rain Intensity Air Temperature Air Pressure Wind Direction Air Humidity
August 03, 2016 11:15 AM 0 0 mm 0 29.8 989.35 0 76
August 03, 2016 11:00 AM 0 0 mm 0 30.3 989.35 0 73.9
August 03, 2016 10:45 AM 0 0 mm 0 29.9 989.49 0 75.3
August 03, 2016 10:30 AM 0 0 mm 0 30.1 989.62 0 75.1
August 03, 2016 10:15 AM 0 0 mm 0 30.2 989.62 0 69.5
August 03, 2016 10:00 AM 0 0 mm 0 29.7 989.62 0 71
August 03, 2016 09:45 AM 0 0 mm 0 29.5 989.62 0 74.1
August 03, 2016 09:30 AM 0 0 mm 0 29.1 989.62 0 75.7
August 03, 2016 09:15 AM 0 0 mm 0 28.4 989.62 0 77.1
December 14, 2015 09:15 PM 6.5 0 mm 0 26.3 988.82 357 80.2
December 14, 2015 09:00 PM 5.6 0.03 mm 0 26.1 989.22 2 80.8
December 14, 2015 08:45 PM 7.8 0 mm 0 26.4 989.35 355 79.1
December 14, 2015 08:30 PM 6.1 0 mm 0 26.3 989.62 358 79.2
December 14, 2015 08:15 PM 7.5 0 mm 0 26.3 989.89 359 79.1
December 14, 2015 08:00 PM 6.8 0 mm 0 26.1 989.62 3 79.1
December 14, 2015 07:45 PM 5.9 0 mm 0 26.2 989.49 351 78.5
December 14, 2015 07:30 PM 6.2 0 mm 0 26 989.49 354 79
December 14, 2015 07:15 PM 6.3 0 mm 0 25.9 989.62 357 79.2
December 14, 2015 07:00 PM 5.2 0 mm 0 25.9 990.02 358 79.2
December 14, 2015 06:45 PM 5.7 0 mm 0 25.9 989.89 348 78.6
December 14, 2015 06:30 PM 6.2 0 mm 0 25.8 989.89 350 79.1
December 14, 2015 06:15 PM 6.2 0 mm 0 25.6 989.89 347 80.9
December 14, 2015 06:00 PM 5.8 0 mm 0 25.7 990.15 358 80.6
December 14, 2015 05:45 PM 5 0 mm 0 25.8 990.02 352 80.4
December 14, 2015 05:30 PM 5.8 0 mm 0 25.8 989.75 357 80.4
December 14, 2015 05:15 PM 6.8 0 mm 0 25.8 989.62 2 80.7
December 14, 2015 05:00 PM 5.5 0 mm 0 25.9 989.49 0 80.8
December 14, 2015 04:45 PM 6.2 0 mm 0 26 989.35 358 80.9
December 14, 2015 04:30 PM 5.1 0 mm 0 25.9 989.35 2 81.5
December 14, 2015 04:15 PM 4.8 0 mm 0 25.8 989.22 356 81.3